Time;durP1;ratioP1;P1;durP2;ratioP2;P2;SDS_P1;SDS_P2;PMS_P1;PMS_P2;Temp;Humidity;BMP_temperature;BMP_pressure;BME280_temperature;BME280_humidity;BME280_pressure;Samples;Min_cycle;Max_cycle;Signal;HPM_P1;HPM_P2
2021/06/09 00:02:16;;;;;;;0.90;0.70;;;21.70;58.80;;;;;;5096844;28;20027;-71
2021/06/09 00:04:42;;;;;;;1.10;0.90;;;21.60;58.20;;;;;;5096816;28;20067;-71
2021/06/09 00:07:08;;;;;;;1.35;0.90;;;21.60;57.60;;;;;;5096727;28;20060;-71
2021/06/09 00:09:33;;;;;;;2.10;0.88;;;21.60;58.30;;;;;;5096271;28;20031;-71
2021/06/09 00:11:59;;;;;;;2.15;1.17;;;21.50;58.20;;;;;;5097046;28;20028;-71
2021/06/09 00:14:25;;;;;;;1.20;1.00;;;21.60;57.10;;;;;;5097164;28;20028;-71
2021/06/09 00:16:50;;;;;;;2.92;0.80;;;21.70;56.90;;;;;;5096931;28;20034;-71
2021/06/09 00:19:17;;;;;;;1.30;0.90;;;21.70;57.10;;;;;;5096670;28;20397;-71
2021/06/09 00:21:47;;;;;;;2.30;1.00;;;21.80;57.30;;;;;;5096887;28;20035;-71
2021/06/09 00:24:14;;;;;;;2.42;0.90;;;21.80;58.30;;;;;;5096978;28;20036;-71
2021/06/09 00:26:40;;;;;;;1.20;0.88;;;21.80;56.60;;;;;;5096474;28;20036;-71
2021/06/09 00:29:06;;;;;;;1.10;0.90;;;21.80;57.30;;;;;;5096571;28;20033;-71
2021/06/09 00:31:32;;;;;;;1.30;1.00;;;21.80;56.30;;;;;;5096848;28;20141;-71
2021/06/09 00:33:57;;;;;;;2.65;1.20;;;21.70;58.40;;;;;;5096859;28;20379;-71
2021/06/09 00:36:23;;;;;;;2.42;1.20;;;21.70;58.90;;;;;;5096781;28;20346;-71
2021/06/09 00:38:49;;;;;;;1.70;1.25;;;21.50;60.30;;;;;;5096760;28;20403;-71
2021/06/09 00:41:15;;;;;;;3.55;1.20;;;21.40;61.80;;;;;;5096802;28;20028;-71
2021/06/09 00:43:41;;;;;;;2.25;1.38;;;21.20;62.00;;;;;;5096234;28;20044;-71
2021/06/09 00:46:09;;;;;;;1.35;1.10;;;21.20;63.50;;;;;;5096336;28;20413;-71
2021/06/09 00:48:37;;;;;;;1.33;0.90;;;21.00;63.80;;;;;;5096375;28;20401;-71
2021/06/09 00:51:13;;;;;;;2.50;1.42;;;20.90;61.80;;;;;;5096351;28;20026;-71
2021/06/09 00:53:42;;;;;;;3.47;1.17;;;20.90;61.20;;;;;;5096738;28;20103;-71
2021/06/09 00:56:12;;;;;;;1.55;0.95;;;20.90;59.40;;;;;;5096602;28;20028;-71
2021/06/09 00:58:40;;;;;;;1.10;1.00;;;21.10;60.20;;;;;;5096373;28;20043;-71
2021/06/09 01:01:07;;;;;;;3.50;1.10;;;21.20;59.60;;;;;;5096301;28;20055;-71
2021/06/09 01:03:34;;;;;;;2.85;1.00;;;21.30;59.90;;;;;;5096643;28;20035;-71
2021/06/09 01:06:02;;;;;;;1.10;0.90;;;21.30;59.50;;;;;;5096149;28;20038;-71
2021/06/09 01:08:28;;;;;;;1.20;0.70;;;21.30;59.40;;;;;;5096247;28;20052;-71
2021/06/09 01:10:54;;;;;;;1.73;1.10;;;21.40;58.40;;;;;;5096542;28;20122;-71
2021/06/09 01:13:21;;;;;;;1.30;0.90;;;21.50;59.80;;;;;;5096533;28;20059;-71
2021/06/09 01:15:48;;;;;;;2.55;1.27;;;21.40;59.70;;;;;;5096205;28;20324;-71
2021/06/09 01:18:14;;;;;;;3.08;1.17;;;21.40;58.40;;;;;;5096152;28;20173;-71
2021/06/09 01:20:39;;;;;;;4.55;1.30;;;21.40;58.60;;;;;;5096147;28;20111;-71
2021/06/09 01:23:06;;;;;;;1.17;0.88;;;21.50;58.60;;;;;;5099868;28;20130;-71
2021/06/09 01:25:33;;;;;;;1.65;1.20;;;21.40;60.20;;;;;;5099577;28;20023;-71
2021/06/09 01:28:00;;;;;;;2.65;1.00;;;21.30;60.70;;;;;;5099657;28;20024;-71
2021/06/09 01:30:26;;;;;;;3.40;1.23;;;21.20;61.00;;;;;;5099583;28;20027;-71
2021/06/09 01:32:52;;;;;;;1.58;1.15;;;21.10;60.40;;;;;;5099556;28;20032;-71
2021/06/09 01:35:20;;;;;;;3.20;1.15;;;21.00;61.20;;;;;;5099480;28;20024;-71
2021/06/09 01:37:46;;;;;;;1.20;1.00;;;21.10;60.00;;;;;;5099788;28;20090;-71
2021/06/09 01:40:17;;;;;;;1.52;1.23;;;21.10;60.20;;;;;;5099745;28;20016;-71
2021/06/09 01:42:44;;;;;;;2.35;1.10;;;21.10;61.90;;;;;;5099377;28;20111;-71
2021/06/09 01:45:14;;;;;;;2.15;1.33;;;21.00;60.70;;;;;;5099183;28;20071;-71
2021/06/09 01:47:40;;;;;;;2.95;1.08;;;21.00;60.40;;;;;;5099554;28;20136;-71
2021/06/09 01:50:09;;;;;;;1.67;1.10;;;21.10;60.90;;;;;;5099255;28;20424;-71
2021/06/09 01:52:35;;;;;;;1.88;1.33;;;21.10;60.40;;;;;;5099077;28;20031;-71
2021/06/09 01:55:04;;;;;;;1.58;1.10;;;21.10;61.00;;;;;;5099113;28;20055;-71
2021/06/09 01:57:29;;;;;;;1.10;0.95;;;21.00;62.10;;;;;;5099029;28;20063;-71
2021/06/09 01:59:55;;;;;;;3.15;1.08;;;21.00;61.90;;;;;;5099324;28;20043;-71
2021/06/09 02:02:21;;;;;;;1.55;1.20;;;20.90;62.60;;;;;;5098989;28;20110;-71
2021/06/09 02:04:47;;;;;;;2.88;1.30;;;20.90;62.10;;;;;;5098905;28;20024;-71
2021/06/09 02:07:13;;;;;;;1.42;1.10;;;20.90;61.50;;;;;;5098815;28;20035;-71
2021/06/09 02:09:39;;;;;;;3.83;1.25;;;21.00;60.40;;;;;;5099181;28;20095;-71
2021/06/09 02:12:07;;;;;;;2.90;1.23;;;21.10;61.50;;;;;;5098776;28;20076;-71
2021/06/09 02:14:35;;;;;;;2.83;1.30;;;21.20;60.40;;;;;;5098669;28;20039;-71
2021/06/09 02:17:02;;;;;;;1.90;1.17;;;21.10;61.20;;;;;;5098967;28;20107;-71
2021/06/09 02:19:28;;;;;;;1.35;1.13;;;21.10;60.70;;;;;;5098968;28;20020;-71
2021/06/09 02:21:54;;;;;;;1.50;1.20;;;21.10;61.20;;;;;;5098903;28;20084;-71
2021/06/09 02:24:20;;;;;;;1.23;1.10;;;21.00;61.50;;;;;;5098923;28;20327;-71
2021/06/09 02:26:49;;;;;;;3.65;1.85;;;21.00;62.10;;;;;;5098366;28;20153;-71
2021/06/09 02:29:15;;;;;;;3.53;1.55;;;21.00;62.70;;;;;;5098777;28;20024;-71
2021/06/09 02:31:48;;;;;;;1.70;1.25;;;20.90;64.50;;;;;;5098395;28;20312;-71
2021/06/09 02:34:20;;;;;;;2.05;1.20;;;20.90;64.30;;;;;;5098361;28;20020;-71
2021/06/09 02:36:51;;;;;;;1.30;0.93;;;20.80;63.00;;;;;;5098590;28;20365;-71
2021/06/09 02:39:18;;;;;;;3.15;1.08;;;20.70;63.50;;;;;;5098305;28;20073;-71
2021/06/09 02:41:44;;;;;;;1.40;1.30;;;20.60;64.50;;;;;;5098226;28;20031;-71
2021/06/09 02:44:11;;;;;;;1.75;1.30;;;20.60;64.80;;;;;;5098031;28;20076;-71
2021/06/09 02:46:43;;;;;;;3.17;1.40;;;20.50;64.60;;;;;;5097962;28;20073;-71
2021/06/09 02:49:14;;;;;;;1.60;1.20;;;20.50;64.20;;;;;;5098355;28;20019;-71
2021/06/09 02:51:44;;;;;;;1.92;1.50;;;20.60;64.10;;;;;;5098372;28;20024;-71
2021/06/09 02:54:30;;;;;;;2.58;1.00;;;20.50;64.30;;;;;;5098350;28;20024;-71
2021/06/09 02:56:58;;;;;;;;;;;20.50;64.00;;;;;;5097831;28;20042;-71
2021/06/09 03:00:05;;;;;;;2.13;1.38;;;20.50;63.90;;;;;;5098198;28;19904;-71
2021/06/09 03:02:49;;;;;;;;;;;20.50;64.80;;;;;;5080902;28;20111;-71
2021/06/09 03:05:23;;;;;;;3.03;1.40;;;20.40;64.80;;;;;;5098011;28;19904;-71
2021/06/09 03:07:58;;;;;;;3.75;1.30;;;20.40;64.90;;;;;;5098046;28;20324;-71
2021/06/09 03:10:52;;;;;;;1.75;1.02;;;20.40;64.60;;;;;;5097685;28;20028;-71
2021/06/09 03:13:27;;;;;;;2.20;1.20;;;20.30;64.40;;;;;;5097978;28;20027;-71
2021/06/09 03:16:01;;;;;;;1.55;1.13;;;20.40;64.80;;;;;;5097885;28;20047;-71
2021/06/09 03:18:35;;;;;;;2.38;1.30;;;20.30;65.20;;;;;;5097539;28;20024;-71
2021/06/09 03:21:11;;;;;;;2.13;1.42;;;20.30;65.00;;;;;;5097854;28;20081;-71
2021/06/09 03:23:43;;;;;;;4.28;1.25;;;20.30;65.90;;;;;;5097742;28;20131;-71
2021/06/09 03:26:26;;;;;;;4.63;1.35;;;20.20;66.30;;;;;;5097256;28;20059;-71
2021/06/09 03:29:10;;;;;;;3.92;1.00;;;20.00;67.70;;;;;;5097682;28;20035;-71
2021/06/09 03:31:41;;;;;;;7.25;1.40;;;19.90;68.10;;;;;;5097633;28;20338;-71
2021/06/09 03:34:14;;;;;;;1.80;1.48;;;19.70;68.90;;;;;;5097321;28;20412;-71
2021/06/09 03:36:42;;;;;;;1.98;1.50;;;19.70;68.60;;;;;;5097202;28;20111;-71
2021/06/09 03:39:11;;;;;;;2.22;1.20;;;19.70;67.90;;;;;;5097509;28;20120;-71
2021/06/09 03:41:57;;;;;;;6.78;1.45;;;19.70;67.10;;;;;;5097402;28;20020;-71
2021/06/09 03:44:33;;;;;;;1.70;1.20;;;19.90;67.00;;;;;;5096200;28;20044;-71
2021/06/09 03:47:00;;;;;;;2.80;1.35;;;19.90;66.10;;;;;;5097041;28;20036;-70
2021/06/09 03:49:28;;;;;;;2.28;1.20;;;20.00;65.90;;;;;;5097332;28;20308;-70
2021/06/09 03:51:55;;;;;;;2.03;1.38;;;20.10;66.30;;;;;;5096941;28;20430;-70
2021/06/09 03:54:22;;;;;;;2.05;1.35;;;20.10;67.10;;;;;;5097336;28;20024;-71
2021/06/09 03:56:50;;;;;;;2.40;1.42;;;20.00;67.50;;;;;;5097194;28;20039;-70
2021/06/09 03:59:19;;;;;;;2.38;1.42;;;19.80;67.90;;;;;;5096897;28;20024;-71
2021/06/09 04:01:47;;;;;;;2.50;1.30;;;19.70;68.00;;;;;;5097154;28;20020;-71
2021/06/09 04:04:18;;;;;;;1.85;1.10;;;19.70;69.20;;;;;;5096871;28;20028;-70
2021/06/09 04:06:45;;;;;;;3.05;1.38;;;19.50;69.50;;;;;;5096774;28;20028;-71
2021/06/09 04:09:17;;;;;;;3.00;1.20;;;19.30;70.60;;;;;;5096819;28;20420;-71
2021/06/09 04:11:44;;;;;;;2.05;1.30;;;19.20;70.70;;;;;;5096767;28;20032;-71
2021/06/09 04:14:16;;;;;;;2.17;1.40;;;19.20;70.50;;;;;;5097202;28;20403;-71
2021/06/09 04:16:44;;;;;;;1.55;1.33;;;19.20;70.50;;;;;;5096978;28;20028;-71
2021/06/09 04:19:12;;;;;;;3.90;1.40;;;19.30;69.60;;;;;;5096690;28;20058;-70
2021/06/09 04:21:38;;;;;;;4.35;1.38;;;19.40;70.40;;;;;;5096623;28;20085;-71
2021/06/09 04:24:05;;;;;;;4.68;1.67;;;19.50;69.20;;;;;;5096709;28;20028;-71
2021/06/09 04:26:33;;;;;;;3.97;1.30;;;19.60;67.80;;;;;;5096778;28;20359;-71
2021/06/09 04:29:01;;;;;;;4.45;1.50;;;19.90;67.90;;;;;;5096587;28;20031;-71
2021/06/09 04:31:27;;;;;;;2.90;1.73;;;19.90;68.50;;;;;;5096558;28;20028;-70
2021/06/09 04:33:57;;;;;;;2.47;1.67;;;20.00;66.90;;;;;;5096891;28;20289;-71
2021/06/09 04:36:24;;;;;;;1.77;1.33;;;20.10;66.60;;;;;;5096802;28;20032;-71
2021/06/09 04:38:50;;;;;;;4.93;1.90;;;20.10;67.20;;;;;;5096550;28;20407;-70
2021/06/09 04:41:16;;;;;;;5.93;1.60;;;20.10;66.30;;;;;;5096844;28;20183;-71
2021/06/09 04:43:41;;;;;;;3.83;1.42;;;20.10;67.00;;;;;;5096566;28;20036;-71
2021/06/09 04:46:08;;;;;;;3.17;1.65;;;20.10;68.00;;;;;;5096670;28;20408;-70
2021/06/09 04:48:34;;;;;;;2.38;1.60;;;20.00;68.90;;;;;;5096735;28;20017;-71
2021/06/09 04:51:00;;;;;;;2.65;1.50;;;19.90;68.60;;;;;;5096743;28;20028;-70
2021/06/09 04:53:26;;;;;;;4.05;1.80;;;19.90;69.00;;;;;;5096745;28;20414;-70
2021/06/09 04:55:55;;;;;;;2.17;1.55;;;19.80;68.80;;;;;;5098079;28;20052;-70
2021/06/09 04:58:25;;;;;;;3.35;1.50;;;19.90;67.70;;;;;;5100237;28;20016;-71
2021/06/09 05:00:52;;;;;;;4.00;1.85;;;20.00;68.60;;;;;;5100220;28;20032;-70
2021/06/09 05:03:18;;;;;;;1.70;1.38;;;20.00;69.90;;;;;;5100527;28;20026;-71
2021/06/09 05:05:44;;;;;;;2.90;1.60;;;19.90;71.30;;;;;;5100262;28;20043;-71
2021/06/09 05:08:10;;;;;;;2.13;1.60;;;19.90;69.50;;;;;;5100045;28;20024;-70
2021/06/09 05:10:39;;;;;;;4.68;1.65;;;20.00;67.70;;;;;;5099053;28;20020;-71
2021/06/09 05:13:18;;;;;;;2.33;1.58;;;20.10;70.50;;;;;;5100145;28;20024;-71
2021/06/09 05:15:51;;;;;;;2.15;1.42;;;20.00;70.40;;;;;;5100429;28;20282;-71
2021/06/09 05:18:21;;;;;;;2.35;1.75;;;20.00;69.60;;;;;;5100215;28;20069;-71
2021/06/09 05:20:49;;;;;;;1.50;1.33;;;20.00;69.00;;;;;;5100138;28;20458;-71
2021/06/09 05:23:20;;;;;;;3.08;1.42;;;20.00;69.50;;;;;;5099793;28;20107;-71
2021/06/09 05:25:49;;;;;;;4.28;1.80;;;20.00;69.50;;;;;;5099938;28;20052;-71
2021/06/09 05:28:16;;;;;;;3.05;1.55;;;20.00;70.60;;;;;;5099651;28;20426;-70
2021/06/09 05:30:43;;;;;;;2.38;1.33;;;20.00;68.90;;;;;;5099635;28;20434;-71
2021/06/09 05:33:10;;;;;;;2.00;1.60;;;20.00;69.80;;;;;;5099913;28;20366;-71
2021/06/09 05:35:36;;;;;;;2.05;1.40;;;20.10;69.50;;;;;;5099793;28;20058;-71
2021/06/09 05:38:03;;;;;;;2.45;1.40;;;20.20;69.70;;;;;;5099756;28;20358;-71
2021/06/09 05:40:30;;;;;;;2.20;1.60;;;20.10;70.10;;;;;;5099410;28;20016;-71
2021/06/09 05:42:55;;;;;;;3.55;1.65;;;20.10;70.00;;;;;;5099282;28;20031;-71
2021/06/09 05:45:29;;;;;;;2.00;1.60;;;20.10;69.60;;;;;;5099188;28;20044;-70
2021/06/09 05:47:55;;;;;;;1.98;1.60;;;20.10;70.60;;;;;;5099355;28;20111;-71
2021/06/09 05:50:24;;;;;;;4.05;1.65;;;20.10;70.30;;;;;;5099557;28;20024;-71
2021/06/09 05:52:52;;;;;;;2.38;1.73;;;20.20;69.60;;;;;;5099172;28;20024;-71
2021/06/09 05:55:21;;;;;;;3.40;2.00;;;20.30;69.60;;;;;;5099119;28;20059;-71
2021/06/09 05:57:47;;;;;;;3.20;2.00;;;20.60;69.20;;;;;;5099068;28;20108;-71
2021/06/09 06:00:15;;;;;;;1.90;1.70;;;20.80;66.30;;;;;;5099615;28;20024;-71
2021/06/09 06:02:42;;;;;;;1.70;1.60;;;21.10;65.80;;;;;;5099263;28;20099;-70
2021/06/09 06:05:09;;;;;;;4.97;1.70;;;21.40;65.10;;;;;;5098970;28;20032;-71
2021/06/09 06:07:36;;;;;;;1.98;1.55;;;21.40;65.10;;;;;;5098332;28;20020;-71
2021/06/09 06:10:04;;;;;;;2.28;1.60;;;21.30;66.40;;;;;;5099188;28;20020;-71
2021/06/09 06:12:31;;;;;;;3.17;1.60;;;21.30;66.30;;;;;;5098961;28;20393;-71
2021/06/09 06:14:57;;;;;;;2.20;1.70;;;21.30;67.50;;;;;;5098649;28;20028;-71
2021/06/09 06:17:22;;;;;;;3.38;1.70;;;21.20;66.70;;;;;;5098711;28;20088;-71
2021/06/09 06:19:50;;;;;;;1.70;1.60;;;21.10;67.90;;;;;;5098977;28;20028;-71
2021/06/09 06:22:19;;;;;;;2.30;1.70;;;21.00;66.50;;;;;;5098678;28;20086;-71
2021/06/09 06:24:47;;;;;;;2.83;2.00;;;21.00;67.80;;;;;;5098874;28;20048;-71
2021/06/09 06:27:16;;;;;;;5.18;1.63;;;21.10;66.50;;;;;;5098440;28;20420;-71
2021/06/09 06:29:44;;;;;;;2.60;1.80;;;21.10;68.00;;;;;;5098778;28;20285;-71
2021/06/09 06:32:13;;;;;;;2.70;1.80;;;21.10;68.00;;;;;;5098454;28;20419;-71
2021/06/09 06:35:00;;;;;;;2.10;1.83;;;21.20;68.10;;;;;;5098366;28;20412;-71
2021/06/09 06:37:27;;;;;;;2.50;1.80;;;21.20;68.20;;;;;;5098693;28;20024;-70
2021/06/09 06:39:53;;;;;;;2.90;1.90;;;21.60;66.80;;;;;;5098577;28;20032;-71
2021/06/09 06:42:19;;;;;;;1.98;1.77;;;21.60;67.30;;;;;;5098566;28;20372;-71
2021/06/09 06:44:45;;;;;;;3.35;1.70;;;21.60;65.90;;;;;;5098043;28;20056;-71
2021/06/09 06:47:12;;;;;;;5.63;1.90;;;21.80;67.00;;;;;;5098081;28;20032;-71
2021/06/09 06:49:38;;;;;;;7.50;2.03;;;22.30;66.80;;;;;;5098098;28;20028;-71
2021/06/09 06:52:04;;;;;;;3.67;1.52;;;22.50;65.80;;;;;;5098049;28;20016;-71
2021/06/09 06:54:30;;;;;;;4.65;2.38;;;22.60;65.00;;;;;;5098312;28;20051;-71
2021/06/09 06:56:57;;;;;;;2.35;1.58;;;22.60;65.30;;;;;;5097953;28;20024;-71
2021/06/09 06:59:25;;;;;;;2.17;1.67;;;22.80;63.40;;;;;;5097891;28;20076;-71
2021/06/09 07:01:52;;;;;;;3.33;1.88;;;23.10;63.60;;;;;;5098188;28;20024;-71
2021/06/09 07:04:20;;;;;;;2.38;1.70;;;23.80;62.90;;;;;;5098178;28;20301;-71
2021/06/09 07:06:48;;;;;;;2.13;1.85;;;24.20;61.60;;;;;;5097595;28;20024;-71
2021/06/09 07:09:16;;;;;;;1.77;1.33;;;24.50;59.90;;;;;;5098037;28;20027;-71
2021/06/09 07:11:43;;;;;;;3.50;1.50;;;24.20;60.40;;;;;;5097956;28;20027;-71
2021/06/09 07:14:11;;;;;;;3.30;1.60;;;23.90;61.80;;;;;;5098085;28;20325;-71
2021/06/09 07:16:40;;;;;;;3.97;1.83;;;24.10;61.40;;;;;;5097515;28;20016;-71
2021/06/09 07:19:07;;;;;;;2.22;1.60;;;24.20;62.10;;;;;;5097547;28;20028;-71
2021/06/09 07:21:34;;;;;;;1.88;1.35;;;24.30;61.00;;;;;;5097464;28;20079;-71
2021/06/09 07:24:01;;;;;;;2.58;1.50;;;24.60;61.80;;;;;;5097827;28;20057;-71
2021/06/09 07:26:29;;;;;;;2.28;1.45;;;24.70;60.60;;;;;;5097580;28;20103;-71
2021/06/09 07:28:56;;;;;;;1.92;1.50;;;24.70;60.00;;;;;;5097369;28;20099;-71
2021/06/09 07:31:36;;;;;;;2.78;1.55;;;24.70;62.10;;;;;;5097670;28;20032;-71
2021/06/09 07:34:05;;;;;;;2.38;1.73;;;24.80;62.00;;;;;;5097320;28;20103;-71
2021/06/09 07:36:58;;;;;;;2.83;1.55;;;25.10;60.70;;;;;;5097518;28;20102;-71
2021/06/09 07:39:42;;;;;;;2.17;1.48;;;25.50;60.50;;;;;;5098385;28;20332;-71
2021/06/09 07:42:14;;;;;;;1.63;1.40;;;26.50;58.20;;;;;;5097524;28;20031;-71
2021/06/09 07:44:49;;;;;;;3.58;1.70;;;27.00;55.80;;;;;;5096850;28;20139;-71
2021/06/09 07:47:16;;;;;;;3.30;1.50;;;26.60;56.20;;;;;;5097355;28;20059;-71
2021/06/09 07:49:48;;;;;;;4.07;1.40;;;26.40;56.20;;;;;;5097063;28;20031;-71
2021/06/09 07:52:17;;;;;;;1.60;1.30;;;26.50;57.20;;;;;;5097326;28;20075;-71
2021/06/09 07:54:44;;;;;;;2.03;1.38;;;26.40;56.00;;;;;;5096941;28;20028;-71
2021/06/09 07:57:11;;;;;;;3.35;1.55;;;26.80;57.30;;;;;;5097272;28;20028;-71
2021/06/09 07:59:38;;;;;;;1.70;1.40;;;27.40;55.20;;;;;;5096934;28;20050;-71
2021/06/09 08:02:04;;;;;;;2.45;1.70;;;28.00;54.10;;;;;;5096829;28;20036;-72
2021/06/09 08:04:30;;;;;;;2.53;1.30;;;28.70;53.70;;;;;;5096827;28;20020;-72
2021/06/09 08:06:58;;;;;;;2.17;1.42;;;29.00;51.80;;;;;;5096728;28;20123;-72
2021/06/09 08:09:25;;;;;;;2.03;1.20;;;29.30;49.50;;;;;;5097155;28;20024;-71
2021/06/09 08:11:52;;;;;;;1.98;1.30;;;28.90;51.30;;;;;;5097040;28;20051;-71
2021/06/09 08:14:20;;;;;;;2.28;1.60;;;28.30;52.10;;;;;;5097092;28;20029;-71
2021/06/09 08:16:46;;;;;;;3.15;1.45;;;27.90;55.20;;;;;;5096651;28;20032;-71
2021/06/09 08:19:12;;;;;;;1.58;1.25;;;28.00;54.30;;;;;;5097045;28;20035;-71
2021/06/09 08:21:38;;;;;;;3.50;1.45;;;27.90;53.20;;;;;;5096652;28;20020;-71
2021/06/09 08:24:04;;;;;;;1.88;1.45;;;28.60;52.30;;;;;;5097072;28;20024;-71
2021/06/09 08:26:30;;;;;;;2.60;1.38;;;28.70;52.30;;;;;;5096531;28;20020;-71
2021/06/09 08:28:57;;;;;;;2.65;1.45;;;28.00;53.50;;;;;;5096978;28;20028;-71
2021/06/09 08:31:29;;;;;;;1.98;1.70;;;27.30;55.10;;;;;;5099363;28;20024;-71
2021/06/09 08:33:58;;;;;;;2.38;1.60;;;26.70;54.40;;;;;;5101043;28;20028;-71
2021/06/09 08:36:24;;;;;;;2.85;1.63;;;26.20;55.20;;;;;;5100597;28;20477;-71
2021/06/09 08:38:53;;;;;;;3.38;1.65;;;26.90;57.10;;;;;;5100958;28;20331;-71
2021/06/09 08:41:22;;;;;;;2.13;1.60;;;28.00;55.50;;;;;;5100579;28;20058;-71
2021/06/09 08:43:48;;;;;;;4.00;1.60;;;29.00;52.00;;;;;;5100621;28;20052;-72
2021/06/09 08:46:16;;;;;;;2.75;1.73;;;29.80;51.60;;;;;;5100726;28;20324;-72
2021/06/09 08:48:44;;;;;;;2.55;1.50;;;30.40;52.70;;;;;;5099413;28;20376;-72
2021/06/09 08:51:12;;;;;;;4.03;1.30;;;30.60;50.20;;;;;;5100698;28;20020;-72
2021/06/09 08:53:49;;;;;;;1.42;1.13;;;30.90;51.00;;;;;;5100703;28;20076;-72
2021/06/09 08:56:17;;;;;;;2.22;1.65;;;31.20;48.50;;;;;;5100292;28;20039;-71
2021/06/09 08:58:44;;;;;;;3.65;1.70;;;30.90;47.30;;;;;;5100200;28;20427;-72
2021/06/09 09:01:12;;;;;;;6.03;1.77;;;30.80;51.70;;;;;;5100486;28;20158;-72
2021/06/09 09:03:41;;;;;;;1.90;1.63;;;30.60;52.80;;;;;;5100187;28;20043;-72
2021/06/09 09:06:07;;;;;;;3.45;2.03;;;30.60;51.10;;;;;;5100308;28;20081;-72
2021/06/09 09:08:33;;;;;;;2.03;1.40;;;31.00;52.40;;;;;;5099047;28;20024;-72
2021/06/09 09:11:00;;;;;;;3.60;1.38;;;31.30;49.50;;;;;;5100349;28;20021;-72
2021/06/09 09:13:26;;;;;;;4.00;1.30;;;31.20;50.60;;;;;;5100345;28;20047;-72
2021/06/09 09:15:53;;;;;;;1.58;1.13;;;31.20;49.80;;;;;;5100204;28;20085;-72
2021/06/09 09:18:19;;;;;;;3.45;1.23;;;30.80;51.80;;;;;;5099882;28;20095;-72
2021/06/09 09:20:47;;;;;;;1.90;0.80;;;30.70;51.00;;;;;;5100133;28;20044;-72
2021/06/09 09:23:19;;;;;;;1.90;1.25;;;30.90;54.60;;;;;;5099845;28;20035;-72
2021/06/09 09:25:45;;;;;;;1.70;1.00;;;31.20;50.80;;;;;;5099942;28;20028;-72
2021/06/09 09:28:32;;;;;;;3.53;2.03;;;31.40;52.20;;;;;;5099721;28;20078;-72
2021/06/09 09:31:11;;;;;;;1.42;1.10;;;30.50;50.70;;;;;;5099073;28;20058;-71
2021/06/09 09:33:38;;;;;;;2.25;1.52;;;29.70;50.30;;;;;;5099590;28;20020;-71
2021/06/09 09:36:25;;;;;;;1.90;1.30;;;29.50;51.50;;;;;;5099817;28;20028;-72
2021/06/09 09:38:51;;;;;;;2.67;1.33;;;29.40;52.70;;;;;;5099852;28;20028;-71
2021/06/09 09:41:19;;;;;;;3.17;1.70;;;28.40;52.40;;;;;;5099223;28;20372;-71
2021/06/09 09:43:45;;;;;;;2.78;1.58;;;27.60;53.80;;;;;;5098860;28;20321;-71
2021/06/09 09:46:13;;;;;;;2.00;1.52;;;27.00;55.80;;;;;;5099593;28;20047;-71
2021/06/09 09:48:42;;;;;;;2.92;1.50;;;26.40;56.80;;;;;;5099606;28;20016;-71
2021/06/09 09:51:10;;;;;;;2.15;1.70;;;26.10;58.70;;;;;;5099262;28;20021;-71
2021/06/09 09:53:36;;;;;;;1.58;1.42;;;25.80;56.70;;;;;;5099570;28;20038;-71
2021/06/09 09:56:05;;;;;;;1.95;1.63;;;25.70;58.90;;;;;;5099142;28;20028;-71
2021/06/09 09:58:35;;;;;;;2.63;1.42;;;25.60;59.30;;;;;;5099398;28;20032;-71
2021/06/09 10:01:23;;;;;;;3.15;1.50;;;25.50;59.90;;;;;;5099093;28;20028;-71
2021/06/09 10:03:52;;;;;;;2.58;1.90;;;26.60;59.30;;;;;;5099368;28;20032;-71
2021/06/09 10:06:24;;;;;;;8.25;2.10;;;27.60;55.70;;;;;;5098840;28;20035;-71
2021/06/09 10:08:51;;;;;;;1.98;1.52;;;27.60;55.60;;;;;;5099276;28;20038;-71
2021/06/09 10:11:18;;;;;;;3.88;1.63;;;27.40;56.40;;;;;;5099209;28;20099;-71
2021/06/09 10:13:45;;;;;;;3.28;1.60;;;27.00;57.90;;;;;;5098990;28;20076;-71
2021/06/09 10:16:20;;;;;;;3.90;1.73;;;26.60;57.20;;;;;;5097617;28;20028;-71
2021/06/09 10:19:00;;;;;;;1.83;1.60;;;26.60;58.10;;;;;;5105114;28;20071;-71
2021/06/09 10:21:27;;;;;;;3.33;1.80;;;26.60;58.70;;;;;;5119498;28;20028;-71
2021/06/09 10:24:04;;;;;;;1.95;1.35;;;26.50;59.10;;;;;;5119067;28;20148;-71
2021/06/09 10:26:30;;;;;;;1.83;1.67;;;27.00;58.00;;;;;;5118872;28;20451;-71
2021/06/09 10:29:03;;;;;;;2.35;1.60;;;27.80;57.10;;;;;;5119245;28;20100;-71
2021/06/09 10:31:31;;;;;;;3.72;1.75;;;28.90;55.80;;;;;;5119237;28;20054;-72
2021/06/09 10:33:57;;;;;;;3.20;2.00;;;29.50;52.90;;;;;;5117876;28;20027;-72
2021/06/09 10:36:24;;;;;;;2.60;1.88;;;29.20;51.40;;;;;;5119063;28;20031;-72
2021/06/09 10:38:51;;;;;;;3.58;1.60;;;29.50;52.10;;;;;;5119117;28;20146;-72
2021/06/09 10:41:17;;;;;;;2.40;2.20;;;29.70;52.70;;;;;;5118720;28;20028;-71
2021/06/09 10:43:47;;;;;;;3.33;2.47;;;29.30;49.60;;;;;;5118519;28;20089;-71
2021/06/09 10:46:17;;;;;;;7.68;2.17;;;29.10;50.60;;;;;;5118749;28;20039;-71
2021/06/09 10:48:43;;;;;;;3.67;2.28;;;29.30;48.50;;;;;;5118966;28;20035;-72
2021/06/09 10:51:09;;;;;;;6.05;2.50;;;29.70;50.90;;;;;;5118768;28;20104;-72
2021/06/09 10:53:37;;;;;;;4.72;2.40;;;29.50;48.60;;;;;;5118466;28;20094;-71
2021/06/09 10:56:04;;;;;;;2.53;2.30;;;28.70;46.20;;;;;;5118689;28;20382;-71
2021/06/09 10:58:29;;;;;;;2.85;2.55;;;28.00;47.30;;;;;;5118690;28;20020;-71
2021/06/09 11:00:56;;;;;;;3.13;2.40;;;27.30;50.90;;;;;;5118646;28;20028;-71
2021/06/09 11:03:25;;;;;;;3.15;2.58;;;26.80;50.70;;;;;;5118300;28;20027;-71
2021/06/09 11:05:51;;;;;;;3.72;2.80;;;26.60;51.60;;;;;;5118083;28;20035;-71
2021/06/09 11:08:17;;;;;;;3.45;2.40;;;26.40;51.40;;;;;;5118187;28;20028;-71
2021/06/09 11:10:51;;;;;;;3.38;2.40;;;26.30;53.50;;;;;;5118100;28;20024;-71
2021/06/09 11:13:29;;;;;;;3.83;2.55;;;26.10;55.70;;;;;;5118134;28;20434;-71
2021/06/09 11:16:04;;;;;;;4.65;2.92;;;26.10;55.90;;;;;;5118302;28;20028;-71
2021/06/09 11:18:40;;;;;;;3.17;2.40;;;26.00;55.30;;;;;;5118290;28;20119;-71
2021/06/09 11:21:11;;;;;;;2.65;2.05;;;25.90;54.40;;;;;;5118219;28;20365;-71
2021/06/09 11:23:40;;;;;;;6.13;2.60;;;25.90;55.70;;;;;;5117976;28;20012;-71
2021/06/09 11:26:22;;;;;;;4.18;2.55;;;26.00;56.50;;;;;;5117677;28;20085;-71
2021/06/09 11:28:48;;;;;;;5.32;2.70;;;26.20;57.30;;;;;;5117806;28;20016;-71
2021/06/09 11:31:27;;;;;;;3.35;2.58;;;26.20;54.80;;;;;;5117727;28;20073;-71
2021/06/09 11:34:02;;;;;;;4.30;2.55;;;26.50;56.00;;;;;;5117734;28;20059;-71
2021/06/09 11:36:30;;;;;;;3.47;2.50;;;27.30;58.80;;;;;;5117935;28;20028;-71
2021/06/09 11:39:06;;;;;;;5.13;2.67;;;27.70;53.30;;;;;;5117610;28;20027;-71
2021/06/09 11:41:43;;;;;;;3.85;2.10;;;27.60;57.10;;;;;;5117898;28;20035;-71
2021/06/09 11:44:37;;;;;;;3.72;2.55;;;27.60;59.30;;;;;;5117596;28;20044;-71
2021/06/09 11:47:28;;;;;;;2.30;1.98;;;27.50;59.60;;;;;;5117467;28;20039;-71
2021/06/09 11:50:14;;;;;;;4.57;2.10;;;27.30;57.20;;;;;;5117790;28;20027;-71
2021/06/09 11:53:13;;;;;;;2.10;1.88;;;27.30;57.80;;;;;;5117284;28;20355;-71
2021/06/09 11:55:40;;;;;;;4.03;1.80;;;27.30;58.10;;;;;;5117639;28;20103;-71
2021/06/09 11:58:12;;;;;;;5.57;2.05;;;27.40;61.50;;;;;;5117311;28;20034;-71
2021/06/09 12:01:06;;;;;;;2.33;1.90;;;27.60;59.10;;;;;;5117657;28;20020;-71
2021/06/09 12:03:32;;;;;;;2.72;2.08;;;27.90;59.70;;;;;;5117309;28;20036;-71
2021/06/09 12:06:19;;;;;;;3.28;1.70;;;28.30;63.90;;;;;;5116403;28;20077;-71
2021/06/09 12:08:48;;;;;;;3.08;1.80;;;28.30;54.40;;;;;;5117190;28;20022;-71
2021/06/09 12:11:15;;;;;;;2.67;1.88;;;28.40;59.50;;;;;;5117196;28;20024;-71
2021/06/09 12:13:41;;;;;;;6.70;2.05;;;28.40;57.00;;;;;;5117405;28;20070;-71
2021/06/09 12:16:21;;;;;;;2.17;1.98;;;28.20;55.40;;;;;;5117097;28;20077;-71
2021/06/09 12:18:48;;;;;;;3.30;2.30;;;28.00;53.70;;;;;;5117118;28;20419;-71
2021/06/09 12:21:17;;;;;;;6.80;2.15;;;27.90;57.70;;;;;;5117103;28;20055;-71
2021/06/09 12:23:57;;;;;;;4.82;2.17;;;27.70;59.00;;;;;;5117080;28;20418;-71
2021/06/09 12:26:23;;;;;;;2.80;2.00;;;27.30;61.60;;;;;;5116953;28;20069;-71
2021/06/09 12:29:01;;;;;;;1.92;1.73;;;27.10;60.90;;;;;;5116976;28;20024;-71
2021/06/09 12:31:26;;;;;;;4.25;1.80;;;26.90;62.70;;;;;;5117012;28;20019;-71
2021/06/09 12:33:53;;;;;;;2.15;1.95;;;26.70;64.10;;;;;;5116992;28;20031;-71
2021/06/09 12:36:18;;;;;;;3.60;2.15;;;26.50;63.60;;;;;;5116914;28;20023;-71
2021/06/09 12:38:44;;;;;;;3.25;1.95;;;26.30;63.20;;;;;;5117279;28;20028;-71
2021/06/09 12:41:10;;;;;;;2.63;1.85;;;25.50;61.50;;;;;;5117242;28;20024;-71
2021/06/09 12:43:40;;;;;;;3.08;2.10;;;24.90;62.50;;;;;;5116768;28;20063;-71
2021/06/09 12:46:07;;;;;;;4.97;2.40;;;24.50;66.00;;;;;;5117061;28;20110;-71
2021/06/09 12:48:37;;;;;;;5.15;2.35;;;24.20;64.70;;;;;;5117112;28;20024;-71
2021/06/09 12:51:04;;;;;;;2.45;2.03;;;24.10;66.30;;;;;;5116794;28;20108;-71
2021/06/09 12:53:36;;;;;;;6.85;2.30;;;24.10;66.00;;;;;;5117131;28;20045;-71
2021/06/09 12:56:07;;;;;;;3.22;2.42;;;24.00;67.00;;;;;;5116758;28;20024;-71
2021/06/09 12:58:35;;;;;;;3.92;2.45;;;24.00;68.10;;;;;;5116743;28;20030;-71
2021/06/09 13:01:07;;;;;;;3.17;2.40;;;24.00;66.80;;;;;;5116732;28;20015;-71